Time;durP1;ratioP1;P1;durP2;ratioP2;P2;SDS_P1;SDS_P2;PMS_P1;PMS_P2;Temp;Humidity;BMP_temperature;BMP_pressure;BME280_temperature;BME280_humidity;BME280_pressure;Samples;Min_cycle;Max_cycle;Signal;HPM_P1;HPM_P2
2022/11/24 00:00:17;;;;;;;14.13;3.50;;;7.70;99.90;;;;;;10439486;28;20190;-79
2022/11/24 00:05:17;;;;;;;11.20;3.37;;;7.80;99.90;;;;;;10433040;28;20644;-79
2022/11/24 00:10:18;;;;;;;11.83;3.30;;;7.80;99.90;;;;;;10439884;28;20317;-77
2022/11/24 00:15:19;;;;;;;12.77;3.50;;;7.70;99.90;;;;;;10444177;28;20177;-79
2022/11/24 00:20:19;;;;;;;15.80;3.53;;;7.60;99.90;;;;;;10439065;28;20227;-80
2022/11/24 00:25:21;;;;;;;12.13;3.43;;;7.60;99.90;;;;;;10432290;28;20742;-79
2022/11/24 00:30:22;;;;;;;18.80;3.60;;;7.60;99.90;;;;;;10440443;28;20230;-80
2022/11/24 00:35:22;;;;;;;15.33;4.33;;;7.70;99.90;;;;;;10438692;28;20777;-80
2022/11/24 00:40:23;;;;;;;13.23;3.50;;;7.80;99.90;;;;;;10430793;28;20804;-80
2022/11/24 00:45:23;;;;;;;14.73;4.03;;;7.80;99.90;;;;;;10429033;28;20449;-80
2022/11/24 00:50:24;;;;;;;14.60;3.77;;;7.80;99.90;;;;;;10438481;28;20660;-79
2022/11/24 00:55:25;;;;;;;15.73;3.87;;;7.80;99.90;;;;;;10429612;28;20247;-77
2022/11/24 01:00:25;;;;;;;13.73;3.90;;;7.90;99.90;;;;;;10431891;28;20220;-78
2022/11/24 01:05:26;;;;;;;17.43;4.00;;;7.90;99.90;;;;;;10447096;28;20570;-75
2022/11/24 01:10:27;;;;;;;13.73;3.47;;;8.00;99.90;;;;;;10428347;28;20213;-77
2022/11/24 01:15:29;;;;;;;12.97;3.50;;;8.10;99.90;;;;;;10428985;28;20215;-78
2022/11/24 01:20:29;;;;;;;14.23;3.60;;;8.10;99.90;;;;;;10438604;28;20317;-80
2022/11/24 01:25:33;;;;;;;13.50;3.50;;;8.10;99.90;;;;;;10442344;28;20315;-80
2022/11/24 01:30:34;;;;;;;18.13;3.43;;;8.10;99.90;;;;;;10442146;28;20293;-77
2022/11/24 01:35:35;;;;;;;9.13;3.00;;;8.10;99.90;;;;;;10436846;28;20216;-79
2022/11/24 01:40:36;;;;;;;13.10;3.97;;;8.00;99.90;;;;;;10429060;28;20221;-79
2022/11/24 01:45:40;;;;;;;11.27;3.33;;;7.90;99.90;;;;;;10433700;28;20323;-77
2022/11/24 01:50:43;;;;;;;16.27;3.37;;;7.90;99.90;;;;;;10429680;28;20325;-77
2022/11/24 01:55:46;;;;;;;12.70;3.90;;;7.80;99.90;;;;;;10432122;28;20740;-79
2022/11/24 02:00:48;;;;;;;16.10;4.10;;;7.70;99.90;;;;;;10421388;28;20220;-79
2022/11/24 02:05:59;;;;;;;13.97;3.70;;;7.60;99.90;;;;;;10443693;28;20228;-78
2022/11/24 02:11:03;;;;;;;15.83;3.63;;;7.60;99.90;;;;;;10432811;28;20225;-78
2022/11/24 02:16:06;;;;;;;13.60;3.43;;;7.70;99.90;;;;;;10426564;28;20311;-76
2022/11/24 02:21:07;;;;;;;16.53;4.10;;;7.80;99.90;;;;;;10428673;28;20220;-77
2022/11/24 02:26:32;;;;;;;15.57;3.30;;;7.80;99.90;;;;;;10432096;28;20308;-77
2022/11/24 02:31:33;;;;;;;12.43;3.30;;;7.70;99.90;;;;;;10425589;28;20704;-78
2022/11/24 02:36:33;;;;;;;12.13;3.80;;;7.60;99.90;;;;;;10440286;28;20239;-78
2022/11/24 02:41:34;;;;;;;12.87;3.57;;;7.60;99.90;;;;;;10426439;28;20228;-77
2022/11/24 02:46:35;;;;;;;12.83;3.90;;;7.50;99.90;;;;;;10432896;28;20728;-77
2022/11/24 02:51:35;;;;;;;17.87;3.83;;;7.40;99.90;;;;;;10425162;28;20221;-78
2022/11/24 02:56:36;;;;;;;20.10;3.63;;;7.30;99.90;;;;;;10431613;28;20212;-76
2022/11/24 03:01:37;;;;;;;16.30;4.17;;;7.30;99.90;;;;;;10450882;28;20641;-76
2022/11/24 03:06:38;;;;;;;12.23;3.50;;;7.30;99.90;;;;;;10426275;28;20232;-78
2022/11/24 03:11:39;;;;;;;16.20;3.77;;;7.40;99.90;;;;;;10430073;28;20594;-76
2022/11/24 03:16:39;;;;;;;13.90;4.57;;;7.50;99.90;;;;;;10430534;28;20219;-76
2022/11/24 03:21:40;;;;;;;15.63;3.80;;;7.60;99.90;;;;;;10428902;28;20255;-76
2022/11/24 03:26:41;;;;;;;16.27;3.53;;;7.50;99.90;;;;;;10430681;28;20283;-75
2022/11/24 03:31:41;;;;;;;11.60;3.67;;;7.60;99.90;;;;;;10430037;28;20353;-74
2022/11/24 03:36:42;;;;;;;12.80;3.43;;;7.60;99.90;;;;;;10427625;28;20777;-75
2022/11/24 03:41:43;;;;;;;17.37;3.80;;;7.40;99.90;;;;;;10424770;28;20313;-76
2022/11/24 03:46:43;;;;;;;18.47;3.60;;;7.50;99.90;;;;;;10429245;28;20236;-76
2022/11/24 03:51:44;;;;;;;17.90;3.67;;;7.50;99.90;;;;;;10424427;28;20232;-75
2022/11/24 03:56:45;;;;;;;12.40;3.77;;;7.40;99.90;;;;;;10428913;28;20758;-76
2022/11/24 04:01:45;;;;;;;19.03;3.93;;;7.40;99.90;;;;;;10428822;28;20212;-76
2022/11/24 04:06:46;;;;;;;18.00;3.93;;;7.50;99.90;;;;;;10432027;28;20231;-77
2022/11/24 04:17:06;;;;;;;13.03;3.20;;;7.80;99.90;;;;;;10439398;28;20859;-77
2022/11/24 04:22:07;;;;;;;16.47;3.60;;;7.90;99.90;;;;;;10440616;28;20224;-78
2022/11/24 04:27:08;;;;;;;11.73;3.23;;;8.10;99.90;;;;;;10432687;28;20806;-78
2022/11/24 04:32:09;;;;;;;17.97;3.70;;;8.20;99.90;;;;;;10429616;28;20226;-78
2022/11/24 04:37:12;;;;;;;14.47;3.50;;;8.20;99.90;;;;;;10436592;28;20219;-76
2022/11/24 04:42:13;;;;;;;17.60;3.87;;;8.30;99.90;;;;;;10437893;28;20286;-77
2022/11/24 04:47:22;;;;;;;19.33;3.73;;;8.50;99.90;;;;;;10422976;28;20371;-78
2022/11/24 04:52:24;;;;;;;16.33;3.03;;;8.50;99.90;;;;;;10430633;28;20225;-76
2022/11/24 04:57:25;;;;;;;9.57;3.07;;;8.60;99.90;;;;;;10439562;28;20233;-79
2022/11/24 05:02:27;;;;;;;17.23;3.83;;;8.60;99.90;;;;;;10438940;28;20222;-81
2022/11/24 05:07:27;;;;;;;13.70;3.33;;;8.70;99.90;;;;;;10440168;28;20235;-77
2022/11/24 05:12:30;;;;;;;14.53;3.07;;;8.70;99.90;;;;;;10420422;28;20222;-75
2022/11/24 05:17:33;;;;;;;16.17;3.70;;;8.70;99.90;;;;;;10442019;28;20301;-76
2022/11/24 05:22:34;;;;;;;14.73;3.37;;;8.70;99.90;;;;;;10430000;28;20231;-75
2022/11/24 05:27:35;;;;;;;18.77;3.90;;;8.80;99.90;;;;;;10428752;28;20229;-76
2022/11/24 05:32:35;;;;;;;16.87;3.60;;;8.80;99.90;;;;;;10445041;28;20865;-73
2022/11/24 05:37:37;;;;;;;18.43;3.77;;;8.80;99.90;;;;;;10416977;28;20225;-76
2022/11/24 05:42:40;;;;;;;14.30;3.10;;;8.80;99.90;;;;;;10434416;28;20917;-75
2022/11/24 05:47:41;;;;;;;14.70;3.53;;;8.90;99.90;;;;;;10438589;28;20234;-75
2022/11/24 05:52:42;;;;;;;14.70;4.10;;;8.90;99.90;;;;;;10422324;28;20231;-77
2022/11/24 05:57:43;;;;;;;16.17;2.93;;;9.00;99.90;;;;;;10441265;28;20237;-75
2022/11/24 06:02:43;;;;;;;15.97;3.40;;;8.90;99.90;;;;;;10426538;28;21856;-73
2022/11/24 06:07:44;;;;;;;16.13;3.50;;;8.90;99.90;;;;;;10441156;28;20225;-72
2022/11/24 06:12:45;;;;;;;17.10;4.03;;;8.90;99.90;;;;;;10432377;28;20293;-72
2022/11/24 06:17:55;;;;;;;19.97;4.20;;;8.80;99.90;;;;;;10429605;28;20226;-72
2022/11/24 06:22:59;;;;;;;17.23;3.70;;;8.80;99.90;;;;;;10431129;28;20709;-72
2022/11/24 06:28:02;;;;;;;20.43;4.07;;;8.80;99.90;;;;;;10432514;28;20226;-73
2022/11/24 06:33:03;;;;;;;14.63;3.40;;;8.90;99.90;;;;;;10417258;28;20222;-69
2022/11/24 06:38:04;;;;;;;13.63;3.53;;;8.90;99.90;;;;;;10434551;28;20214;-70
2022/11/24 06:43:04;;;;;;;14.23;4.03;;;8.90;99.90;;;;;;10421217;28;20690;-71
2022/11/24 06:48:05;;;;;;;17.70;3.20;;;8.90;99.90;;;;;;10433012;28;20223;-71
2022/11/24 06:53:06;;;;;;;18.00;3.90;;;8.90;99.90;;;;;;10427553;28;20218;-68
2022/11/24 06:58:07;;;;;;;16.03;3.20;;;8.90;99.90;;;;;;10452733;28;20216;-71
2022/11/24 07:03:14;;;;;;;22.57;3.60;;;8.90;99.90;;;;;;10445043;28;20609;-70
2022/11/24 07:08:14;;;;;;;17.53;3.60;;;8.90;99.90;;;;;;10423982;28;20249;-69
2022/11/24 07:13:15;;;;;;;17.23;3.33;;;8.90;99.90;;;;;;10420152;28;20695;-70
2022/11/24 07:18:15;;;;;;;18.10;3.43;;;8.90;99.90;;;;;;10422080;28;20776;-70
2022/11/24 07:23:16;;;;;;;19.87;4.00;;;8.90;99.90;;;;;;10427718;28;20219;-68
2022/11/24 07:28:17;;;;;;;13.80;3.53;;;8.90;99.90;;;;;;10439059;28;20210;-70
2022/11/24 07:33:20;;;;;;;16.80;3.77;;;8.90;99.90;;;;;;10434041;28;20574;-69
2022/11/24 07:38:20;;;;;;;15.93;3.73;;;8.90;99.90;;;;;;10437656;28;20808;-69
2022/11/24 07:43:21;;;;;;;16.90;3.67;;;8.90;99.90;;;;;;10431144;28;20230;-69
2022/11/24 07:48:21;;;;;;;21.70;4.10;;;8.90;99.90;;;;;;10437908;28;20268;-69
2022/11/24 07:53:22;;;;;;;24.83;4.17;;;8.90;99.90;;;;;;10423538;28;20226;-69
2022/11/24 07:58:23;;;;;;;12.20;3.17;;;9.00;99.90;;;;;;10444630;28;20223;-70
2022/11/24 08:03:24;;;;;;;18.73;4.23;;;9.10;99.90;;;;;;10437572;28;20327;-70
2022/11/24 08:08:25;;;;;;;16.10;3.60;;;9.30;99.90;;;;;;10460408;28;20225;-70
2022/11/24 08:13:26;;;;;;;15.93;3.20;;;9.60;99.90;;;;;;10445982;28;20225;-70
2022/11/24 08:18:27;;;;;;;15.60;3.57;;;9.60;99.90;;;;;;10432373;28;20228;-69
2022/11/24 08:23:28;;;;;;;15.43;3.60;;;9.50;99.90;;;;;;10473320;28;20628;-70
2022/11/24 08:28:28;;;;;;;12.77;3.37;;;9.30;99.90;;;;;;10436357;28;20298;-72
2022/11/24 08:33:29;;;;;;;12.33;3.10;;;9.30;99.90;;;;;;10427717;28;20250;-70
2022/11/24 08:38:30;;;;;;;14.93;3.53;;;9.30;99.90;;;;;;10451527;28;20231;-69
2022/11/24 08:43:31;;;;;;;11.53;3.30;;;9.50;99.90;;;;;;10441920;28;20247;-70
2022/11/24 08:48:32;;;;;;;14.97;3.60;;;9.80;99.90;;;;;;10440602;28;20230;-70
2022/11/24 08:53:33;;;;;;;13.97;3.37;;;10.00;99.90;;;;;;10430205;28;20237;-68
2022/11/24 08:58:34;;;;;;;13.93;3.40;;;10.00;99.90;;;;;;10448742;28;20230;-70
2022/11/24 09:03:37;;;;;;;15.20;3.53;;;9.90;99.90;;;;;;10452504;28;20227;-70
2022/11/24 09:08:37;;;;;;;16.50;3.50;;;9.80;99.90;;;;;;10447992;28;20223;-69
2022/11/24 09:13:39;;;;;;;14.60;3.47;;;9.90;99.90;;;;;;10435194;28;20227;-69
2022/11/24 09:18:40;;;;;;;11.00;3.57;;;10.60;99.90;;;;;;10439984;28;20694;-71
2022/11/24 09:23:42;;;;;;;12.43;2.83;;;11.10;99.90;;;;;;10443494;28;20245;-71
2022/11/24 09:28:43;;;;;;;13.47;3.50;;;11.60;99.90;;;;;;10446084;28;20595;-71
2022/11/24 09:33:43;;;;;;;12.13;3.30;;;11.40;99.90;;;;;;10438443;28;20226;-71
2022/11/24 09:38:44;;;;;;;11.13;3.33;;;11.40;99.90;;;;;;10443953;28;20257;-72
2022/11/24 09:44:02;;;;;;;10.00;3.90;;;11.50;99.90;;;;;;10443109;28;20315;-71
2022/11/24 09:49:06;;;;;;;12.90;3.70;;;12.60;99.90;;;;;;10440214;28;20313;-70
2022/11/24 09:54:22;;;;;;;11.13;3.10;;;13.10;99.90;;;;;;10444152;28;20230;-68
2022/11/24 09:59:26;;;;;;;12.10;2.87;;;12.90;99.90;;;;;;10444245;28;20331;-70
2022/11/24 10:04:41;;;;;;;6.83;2.40;;;13.30;99.90;;;;;;10440405;28;20235;-71
2022/11/24 10:09:41;;;;;;;10.80;2.87;;;16.70;99.90;;;;;;10447329;28;20745;-71
2022/11/24 10:15:21;;;;;;;13.57;3.20;;;18.20;99.90;;;;;;10467135;28;20216;-71
2022/11/24 10:20:50;;;;;;;11.43;3.00;;;17.00;99.90;;;;;;10439001;28;20322;-71
2022/11/24 10:25:57;;;;;;;7.07;2.23;;;16.70;99.90;;;;;;10417517;28;20798;-70
2022/11/24 10:31:16;;;;;;;10.80;2.57;;;16.20;99.90;;;;;;10435748;28;20335;-71
2022/11/24 10:36:41;;;;;;;7.67;2.23;;;15.60;99.90;;;;;;10438999;28;20219;-71
2022/11/24 10:41:49;;;;;;;8.90;2.47;;;15.80;99.90;;;;;;10438019;28;20720;-71
2022/11/24 10:46:50;;;;;;;8.10;2.53;;;14.90;99.90;;;;;;10440333;28;20233;-71
2022/11/24 10:51:54;;;;;;;9.87;2.37;;;14.30;99.90;;;;;;10430419;28;20223;-70
2022/11/24 10:56:55;;;;;;;10.10;2.80;;;15.40;99.90;;;;;;10438563;28;20230;-70
2022/11/24 11:01:55;;;;;;;6.93;2.20;;;15.00;99.90;;;;;;10441824;28;20253;-70
2022/11/24 11:07:17;;;;;;;8.50;2.17;;;17.80;99.90;;;;;;10445912;28;20243;-69
2022/11/24 11:12:21;;;;;;;9.07;2.50;;;17.20;99.90;;;;;;10435083;28;20571;-71
2022/11/24 11:17:37;;;;;;;8.30;2.43;;;15.70;99.90;;;;;;10434637;28;20627;-70
2022/11/24 11:22:37;;;;;;;7.23;2.20;;;14.40;99.90;;;;;;10418137;28;20231;-70
2022/11/24 11:27:39;;;;;;;10.67;2.63;;;13.60;99.90;;;;;;10424910;28;20929;-71
2022/11/24 11:32:50;;;;;;;11.90;2.97;;;13.00;99.90;;;;;;10429958;28;20230;-70
2022/11/24 11:37:53;;;;;;;11.23;2.67;;;12.60;99.90;;;;;;10466255;28;20217;-71
2022/11/24 11:43:30;;;;;;;6.63;2.10;;;12.60;99.90;;;;;;10446157;28;20247;-70
2022/11/24 11:48:34;;;;;;;9.93;2.60;;;12.70;99.90;;;;;;10432079;28;20231;-71
2022/11/24 11:54:01;;;;;;;15.13;3.37;;;12.60;99.90;;;;;;10449719;28;20226;-71
2022/11/24 11:59:19;;;;;;;13.03;3.30;;;12.50;99.90;;;;;;10478067;28;20310;-70
2022/11/24 12:04:42;;;;;;;17.27;4.47;;;12.70;99.90;;;;;;10436424;28;20793;-70
2022/11/24 12:09:56;;;;;;;8.50;2.53;;;12.90;99.90;;;;;;10432554;28;20804;-71
2022/11/24 12:15:15;;;;;;;8.07;2.30;;;13.10;99.90;;;;;;10448258;28;20301;-71
2022/11/24 12:20:49;;;;;;;8.30;2.13;;;13.30;99.90;;;;;;10470097;28;20647;-71
2022/11/24 12:26:05;;;;;;;8.63;2.10;;;13.20;99.90;;;;;;10443758;28;20330;-71
2022/11/24 12:31:11;;;;;;;10.03;2.30;;;13.10;99.90;;;;;;10424401;28;20225;-70
2022/11/24 12:36:21;;;;;;;8.90;2.57;;;13.00;99.90;;;;;;10434590;28;20234;-71
2022/11/24 12:41:35;;;;;;;12.20;2.87;;;13.10;99.90;;;;;;10434765;28;20281;-71
2022/11/24 12:47:07;;;;;;;7.07;2.20;;;13.10;99.90;;;;;;10466551;28;20238;-71
2022/11/24 12:52:27;;;;;;;8.20;2.33;;;12.80;99.90;;;;;;10444338;28;20251;-71
2022/11/24 12:57:46;;;;;;;11.27;3.00;;;12.90;99.90;;;;;;10443923;28;20230;-71
2022/11/24 13:03:03;;;;;;;6.00;1.67;;;12.90;99.90;;;;;;10428781;28;20241;-71
2022/11/24 13:08:05;;;;;;;7.50;1.80;;;12.70;99.90;;;;;;10435119;28;20231;-71
2022/11/24 13:13:08;;;;;;;10.50;2.33;;;12.60;99.90;;;;;;10440077;28;20706;-72
2022/11/24 13:18:47;;;;;;;10.63;2.23;;;12.40;99.90;;;;;;10445215;28;20228;-72
2022/11/24 13:23:58;;;;;;;10.20;2.43;;;12.10;99.90;;;;;;10424666;28;20318;-70
2022/11/24 13:29:03;;;;;;;11.07;2.53;;;11.80;99.90;;;;;;10436867;28;20229;-72
2022/11/24 13:34:44;;;;;;;10.17;2.90;;;11.60;99.90;;;;;;10447689;28;20243;-72
2022/11/24 13:39:57;;;;;;;13.40;2.97;;;11.70;99.90;;;;;;10402721;28;20775;-71
2022/11/24 13:45:01;;;;;;;7.97;2.40;;;12.10;99.90;;;;;;10449170;28;20228;-71
2022/11/24 13:50:05;;;;;;;8.40;2.40;;;12.10;99.90;;;;;;10431479;28;20702;-72
2022/11/24 13:55:11;;;;;;;8.47;2.33;;;12.00;99.90;;;;;;10427276;28;20694;-72
2022/11/24 14:00:26;;;;;;;8.83;2.53;;;12.00;99.90;;;;;;10462750;28;20230;-70
2022/11/24 14:05:34;;;;;;;9.87;1.97;;;12.10;99.90;;;;;;10439027;28;20235;-71
2022/11/24 14:10:36;;;;;;;5.93;2.00;;;11.90;99.90;;;;;;10430985;28;20246;-70
2022/11/24 14:15:37;;;;;;;7.73;2.47;;;11.70;99.90;;;;;;10443073;28;20710;-69
2022/11/24 14:20:37;;;;;;;9.27;2.23;;;11.50;99.90;;;;;;10435690;28;20216;-70
2022/11/24 14:25:38;;;;;;;8.13;1.80;;;11.40;99.90;;;;;;10434187;28;20322;-70
2022/11/24 14:30:39;;;;;;;10.83;2.50;;;11.30;99.90;;;;;;10441463;28;20243;-70
2022/11/24 14:35:45;;;;;;;14.20;2.50;;;11.20;99.90;;;;;;10438981;28;20686;-69
2022/11/24 14:40:49;;;;;;;7.97;2.00;;;11.00;99.90;;;;;;10425673;28;20226;-71
2022/11/24 14:45:59;;;;;;;9.67;2.70;;;10.80;99.90;;;;;;10431234;28;20250;-68
2022/11/24 14:51:17;;;;;;;11.03;2.27;;;10.70;99.90;;;;;;10440204;28;20215;-69
2022/11/24 14:56:32;;;;;;;9.07;2.43;;;10.50;99.90;;;;;;10443900;28;20234;-69
2022/11/24 15:01:34;;;;;;;10.57;2.60;;;10.40;99.90;;;;;;10432283;28;20218;-69
2022/11/24 15:06:35;;;;;;;10.50;2.90;;;10.20;99.90;;;;;;10424646;28;20230;-70
2022/11/24 15:11:36;;;;;;;7.63;2.40;;;10.10;99.90;;;;;;10427463;28;20609;-71
2022/11/24 15:16:38;;;;;;;12.53;2.50;;;9.90;99.90;;;;;;10438971;28;20223;-71
2022/11/24 15:21:39;;;;;;;11.00;2.90;;;9.80;99.90;;;;;;10424500;28;20978;-71
2022/11/24 15:26:40;;;;;;;9.67;2.70;;;9.70;99.90;;;;;;10428871;28;20261;-71
2022/11/24 15:31:41;;;;;;;12.40;3.57;;;9.50;99.90;;;;;;10423221;28;20928;-71
2022/11/24 15:36:41;;;;;;;10.67;2.80;;;9.40;99.90;;;;;;10427540;28;20710;-71
2022/11/24 15:41:42;;;;;;;9.47;2.60;;;9.20;99.90;;;;;;10425307;28;20230;-70
2022/11/24 15:46:43;;;;;;;11.33;3.07;;;9.20;99.90;;;;;;10432398;28;20248;-71
2022/11/24 15:51:44;;;;;;;10.20;2.57;;;9.10;99.90;;;;;;10434441;28;20214;-70
2022/11/24 15:56:45;;;;;;;10.50;2.77;;;9.00;99.90;;;;;;10432104;28;20244;-70
2022/11/24 16:01:48;;;;;;;13.17;2.87;;;8.90;99.90;;;;;;10420512;28;20223;-71
2022/11/24 16:06:52;;;;;;;12.97;2.77;;;8.70;99.90;;;;;;10415404;28;20231;-74
2022/11/24 16:11:52;;;;;;;7.87;2.53;;;8.60;99.90;;;;;;10425116;28;20258;-74
2022/11/24 16:16:53;;;;;;;9.17;2.43;;;8.50;99.90;;;;;;10431747;28;20236;-73
2022/11/24 16:21:53;;;;;;;6.90;2.40;;;8.50;99.90;;;;;;10437153;28;20222;-73
2022/11/24 16:26:54;;;;;;;10.17;2.30;;;8.50;99.90;;;;;;10432545;28;20255;-73
2022/11/24 16:31:54;;;;;;;6.10;2.43;;;8.40;99.90;;;;;;10432610;28;20332;-74
2022/11/24 16:36:55;;;;;;;7.17;2.27;;;8.30;99.90;;;;;;10431130;28;20245;-74
2022/11/24 16:41:55;;;;;;;8.77;2.97;;;8.20;99.90;;;;;;10441109;28;20678;-74
2022/11/24 16:46:56;;;;;;;10.57;3.00;;;8.10;99.90;;;;;;10445059;28;20242;-72
2022/11/24 16:51:57;;;;;;;14.60;3.37;;;8.10;99.90;;;;;;10432450;28;20225;-73
2022/11/24 16:56:57;;;;;;;15.83;3.93;;;8.00;99.90;;;;;;10430569;28;20232;-74
2022/11/24 17:01:58;;;;;;;13.00;3.67;;;7.90;99.90;;;;;;10432709;28;20216;-72
2022/11/24 17:06:59;;;;;;;8.53;3.07;;;7.90;99.90;;;;;;10435319;28;20224;-72
2022/11/24 17:11:59;;;;;;;10.67;3.47;;;7.80;99.90;;;;;;10430892;28;20225;-74
2022/11/24 17:17:00;;;;;;;15.67;3.53;;;7.80;99.90;;;;;;10451704;28;20227;-74
2022/11/24 17:22:00;;;;;;;11.67;3.67;;;7.80;99.90;;;;;;10431180;28;20708;-74
2022/11/24 17:27:04;;;;;;;9.53;3.70;;;7.70;99.90;;;;;;10435830;28;20229;-73
2022/11/24 17:32:05;;;;;;;9.87;3.70;;;7.60;99.90;;;;;;10431320;28;20248;-73
2022/11/24 17:37:05;;;;;;;14.73;6.97;;;7.50;99.90;;;;;;10431538;28;20282;-73
2022/11/24 17:42:06;;;;;;;15.60;6.70;;;7.40;99.90;;;;;;10426890;28;20722;-73
2022/11/24 17:47:06;;;;;;;14.47;4.90;;;7.40;99.90;;;;;;10429003;28;20704;-73
2022/11/24 17:52:07;;;;;;;10.43;4.07;;;7.40;99.90;;;;;;10434555;28;20301;-73
2022/11/24 17:57:08;;;;;;;12.60;4.00;;;7.30;99.90;;;;;;10434579;28;20687;-72
2022/11/24 18:02:12;;;;;;;12.83;4.50;;;7.30;99.90;;;;;;10430252;28;20258;-74
2022/11/24 18:07:12;;;;;;;12.67;5.23;;;7.30;99.90;;;;;;10427275;28;20229;-72
2022/11/24 18:12:13;;;;;;;15.53;5.67;;;7.30;99.90;;;;;;10430065;28;20204;-73
2022/11/24 18:17:13;;;;;;;15.97;5.33;;;7.30;99.90;;;;;;10446638;28;20224;-73
2022/11/24 18:22:14;;;;;;;12.63;4.47;;;7.30;99.90;;;;;;10426841;28;20301;-72
2022/11/24 18:27:14;;;;;;;10.23;4.20;;;7.30;99.90;;;;;;10440278;28;20228;-74
2022/11/24 18:32:15;;;;;;;12.53;3.93;;;7.20;99.90;;;;;;10434724;28;20222;-72
2022/11/24 18:37:16;;;;;;;12.00;3.90;;;7.20;99.90;;;;;;10439261;28;20283;-73
2022/11/24 18:42:16;;;;;;;15.30;4.10;;;7.20;99.90;;;;;;10440273;28;20216;-75
2022/11/24 18:47:17;;;;;;;11.47;4.23;;;7.30;99.90;;;;;;10440177;28;20221;-73
2022/11/24 18:52:17;;;;;;;11.77;4.03;;;7.40;99.90;;;;;;10447244;28;20592;-73
2022/11/24 18:57:18;;;;;;;12.77;3.87;;;7.40;99.90;;;;;;10432035;28;20251;-73
2022/11/24 19:02:19;;;;;;;15.90;4.30;;;7.40;99.90;;;;;;10442474;28;20630;-74
2022/11/24 19:07:19;;;;;;;14.10;4.10;;;7.60;99.90;;;;;;10445228;28;20214;-73
2022/11/24 19:12:20;;;;;;;14.00;4.03;;;7.70;99.90;;;;;;10446281;28;20269;-73
2022/11/24 19:17:20;;;;;;;11.77;4.00;;;7.80;99.90;;;;;;10422568;28;20307;-73
2022/11/24 19:22:21;;;;;;;14.77;4.20;;;7.80;99.90;;;;;;10436202;28;20576;-73
2022/11/24 19:27:21;;;;;;;15.67;4.30;;;7.80;99.90;;;;;;10428110;28;20275;-73
2022/11/24 19:32:22;;;;;;;10.67;3.87;;;7.80;99.90;;;;;;10426332;28;20264;-72
2022/11/24 19:37:22;;;;;;;15.40;4.00;;;7.70;99.90;;;;;;10428878;28;20212;-72
2022/11/24 19:42:23;;;;;;;12.37;4.10;;;7.70;99.90;;;;;;10421247;28;20222;-72
2022/11/24 19:47:24;;;;;;;16.93;4.60;;;7.70;99.90;;;;;;10427558;28;20238;-72
2022/11/24 19:52:24;;;;;;;16.20;4.00;;;7.70;99.90;;;;;;10420628;28;20249;-73
2022/11/24 19:57:25;;;;;;;13.10;3.93;;;7.70;99.90;;;;;;10431646;28;20227;-73
2022/11/24 20:02:28;;;;;;;14.83;3.63;;;7.60;99.90;;;;;;10431352;28;20220;-73
2022/11/24 20:07:29;;;;;;;13.33;3.97;;;7.60;99.90;;;;;;10436575;28;20220;-72
2022/11/24 20:12:31;;;;;;;8.80;3.60;;;7.50;99.90;;;;;;10433011;28;20209;-72
2022/11/24 20:17:32;;;;;;;16.57;3.83;;;7.50;99.90;;;;;;10437330;28;20243;-73
2022/11/24 20:22:33;;;;;;;12.37;3.80;;;7.40;99.90;;;;;;10440432;28;20204;-72
2022/11/24 20:27:34;;;;;;;7.27;3.20;;;7.30;99.90;;;;;;10436349;28;20220;-73
2022/11/24 20:32:34;;;;;;;11.17;3.80;;;7.20;99.90;;;;;;10426841;28;20690;-74
2022/11/24 20:37:35;;;;;;;12.63;3.50;;;7.20;99.90;;;;;;10435095;28;20212;-73
2022/11/24 20:42:36;;;;;;;14.77;4.20;;;7.10;99.90;;;;;;10434956;28;20689;-72
2022/11/24 20:47:36;;;;;;;11.53;3.83;;;7.10;99.90;;;;;;10432456;28;20315;-73
2022/11/24 20:52:37;;;;;;;9.90;4.17;;;7.10;99.90;;;;;;10449953;28;20822;-72
2022/11/24 20:57:37;;;;;;;13.90;3.97;;;7.10;99.90;;;;;;10447973;28;20612;-72
2022/11/24 21:02:38;;;;;;;12.90;4.90;;;7.10;99.90;;;;;;10443303;28;20211;-72
2022/11/24 21:07:39;;;;;;;13.03;4.77;;;7.00;99.90;;;;;;10428750;28;20235;-72
2022/11/24 21:12:39;;;;;;;12.10;4.23;;;7.00;99.90;;;;;;10434783;28;20222;-71
2022/11/24 21:17:40;;;;;;;13.37;4.70;;;6.90;99.90;;;;;;10429315;28;20222;-72
2022/11/24 21:22:40;;;;;;;12.50;4.27;;;6.80;99.90;;;;;;10434538;28;20286;-72
2022/11/24 21:27:41;;;;;;;12.67;4.47;;;6.70;99.90;;;;;;10433862;28;20228;-72
2022/11/24 21:32:42;;;;;;;9.33;3.57;;;6.60;99.90;;;;;;10444694;28;20678;-71
2022/11/24 21:37:43;;;;;;;12.03;4.20;;;6.50;99.90;;;;;;10430507;28;20235;-71
2022/11/24 21:42:43;;;;;;;12.13;4.33;;;6.40;99.90;;;;;;10429013;28;20224;-72
2022/11/24 21:47:45;;;;;;;15.17;4.40;;;6.40;99.90;;;;;;10432793;28;20706;-69
2022/11/24 21:52:48;;;;;;;13.33;4.37;;;6.30;99.90;;;;;;10439581;28;20212;-75
2022/11/24 21:57:48;;;;;;;12.77;4.37;;;6.30;99.90;;;;;;10464602;28;20781;-71
2022/11/24 22:02:49;;;;;;;14.77;4.43;;;6.30;99.90;;;;;;10433891;28;20227;-77
2022/11/24 22:07:51;;;;;;;11.60;4.13;;;6.20;99.90;;;;;;10424310;28;20227;-74
2022/11/24 22:12:51;;;;;;;14.80;4.60;;;6.10;99.90;;;;;;10445837;28;20323;-74
2022/11/24 22:17:52;;;;;;;12.93;5.20;;;6.00;99.90;;;;;;10441703;28;20278;-74
2022/11/24 22:22:53;;;;;;;9.00;4.37;;;5.90;99.90;;;;;;10439200;28;20227;-77
2022/11/24 22:27:53;;;;;;;10.30;4.13;;;5.90;99.90;;;;;;10427517;28;20246;-76
2022/11/24 22:32:54;;;;;;;8.57;3.73;;;5.80;99.90;;;;;;10433416;28;20310;-77
2022/11/24 22:38:00;;;;;;;11.67;3.90;;;5.80;99.90;;;;;;10433782;28;20227;-76
2022/11/24 22:43:04;;;;;;;10.70;3.90;;;5.70;99.90;;;;;;10434707;28;20216;-76
2022/11/24 22:48:05;;;;;;;11.43;4.07;;;5.70;99.90;;;;;;10429353;28;20279;-77
2022/11/24 22:53:05;;;;;;;17.30;6.17;;;5.60;99.90;;;;;;10424849;28;20252;-78
2022/11/24 22:58:06;;;;;;;19.80;9.53;;;5.70;99.90;;;;;;10429151;28;20261;-77
2022/11/24 23:03:06;;;;;;;16.70;6.00;;;5.70;99.90;;;;;;10450466;28;20306;-76
2022/11/24 23:08:07;;;;;;;14.43;5.93;;;5.80;99.90;;;;;;10425455;28;20237;-78
2022/11/24 23:13:08;;;;;;;14.00;7.10;;;5.70;99.90;;;;;;10432055;28;20274;-79
2022/11/24 23:18:08;;;;;;;15.70;7.27;;;5.60;99.90;;;;;;10427467;28;20251;-78
2022/11/24 23:23:11;;;;;;;10.03;6.17;;;5.60;99.90;;;;;;10433395;28;20222;-79
2022/11/24 23:28:12;;;;;;;12.50;5.90;;;5.60;99.90;;;;;;10438668;28;20228;-76
2022/11/24 23:33:12;;;;;;;9.97;5.63;;;5.40;99.90;;;;;;10425027;28;20236;-75
2022/11/24 23:38:13;;;;;;;11.07;5.23;;;5.30;99.90;;;;;;10429050;28;20247;-77
2022/11/24 23:43:13;;;;;;;12.13;5.13;;;5.20;99.90;;;;;;10423323;28;20223;-76
2022/11/24 23:48:14;;;;;;;9.43;4.60;;;5.20;99.90;;;;;;10423614;28;20687;-78
2022/11/24 23:53:15;;;;;;;13.87;4.60;;;5.10;99.90;;;;;;10429877;28;20219;-78
2022/11/24 23:58:15;;;;;;;8.17;4.17;;;5.00;99.90;;;;;;10417408;28;20718;-78
